sensor_id;sensor_type;location;lat;lon;timestamp;P1;durP1;ratioP1;P2;durP2;ratioP2
16760;SDS011;8498;52.516;13.790;2023-07-20T00:04:31;5.18;;;4.47;;
16760;SDS011;8498;52.516;13.790;2023-07-20T00:09:54;4.97;;;4.43;;
16760;SDS011;8498;52.516;13.790;2023-07-20T00:15:17;7.53;;;5.13;;
16760;SDS011;8498;52.516;13.790;2023-07-20T00:20:39;5.15;;;4.38;;
16760;SDS011;8498;52.516;13.790;2023-07-20T00:26:02;5.47;;;4.70;;
16760;SDS011;8498;52.516;13.790;2023-07-20T00:31:25;4.68;;;4.28;;
16760;SDS011;8498;52.516;13.790;2023-07-20T00:36:49;6.38;;;4.38;;
16760;SDS011;8498;52.516;13.790;2023-07-20T00:42:11;7.25;;;4.38;;
16760;SDS011;8498;52.516;13.790;2023-07-20T00:47:34;7.53;;;4.00;;
16760;SDS011;8498;52.516;13.790;2023-07-20T00:52:56;5.60;;;4.43;;
16760;SDS011;8498;52.516;13.790;2023-07-20T00:58:20;6.55;;;4.47;;
16760;SDS011;8498;52.516;13.790;2023-07-20T01:03:42;5.30;;;4.28;;
16760;SDS011;8498;52.516;13.790;2023-07-20T01:15:01;8.63;;;4.25;;
16760;SDS011;8498;52.516;13.790;2023-07-20T01:20:23;5.80;;;4.38;;
16760;SDS011;8498;52.516;13.790;2023-07-20T01:31:34;6.72;;;4.15;;
16760;SDS011;8498;52.516;13.790;2023-07-20T01:36:58;6.75;;;4.53;;
16760;SDS011;8498;52.516;13.790;2023-07-20T01:42:23;6.55;;;4.70;;
16760;SDS011;8498;52.516;13.790;2023-07-20T01:47:46;6.63;;;4.65;;
16760;SDS011;8498;52.516;13.790;2023-07-20T01:53:08;7.03;;;4.90;;
16760;SDS011;8498;52.516;13.790;2023-07-20T01:58:31;10.98;;;5.00;;
16760;SDS011;8498;52.516;13.790;2023-07-20T02:03:53;8.00;;;4.40;;
16760;SDS011;8498;52.516;13.790;2023-07-20T02:09:16;7.07;;;5.07;;
16760;SDS011;8498;52.516;13.790;2023-07-20T02:14:38;10.00;;;4.57;;
16760;SDS011;8498;52.516;13.790;2023-07-20T02:20:01;9.68;;;5.03;;
16760;SDS011;8498;52.516;13.790;2023-07-20T02:25:25;6.30;;;5.03;;
16760;SDS011;8498;52.516;13.790;2023-07-20T02:30:48;7.22;;;5.18;;
16760;SDS011;8498;52.516;13.790;2023-07-20T02:36:11;7.80;;;5.45;;
16760;SDS011;8498;52.516;13.790;2023-07-20T02:41:34;7.53;;;5.63;;
16760;SDS011;8498;52.516;13.790;2023-07-20T02:46:57;8.23;;;5.88;;
16760;SDS011;8498;52.516;13.790;2023-07-20T02:52:19;7.80;;;5.93;;
16760;SDS011;8498;52.516;13.790;2023-07-20T02:57:43;9.57;;;6.20;;
16760;SDS011;8498;52.516;13.790;2023-07-20T03:03:06;11.35;;;6.75;;
16760;SDS011;8498;52.516;13.790;2023-07-20T03:08:32;13.85;;;6.85;;
16760;SDS011;8498;52.516;13.790;2023-07-20T03:13:54;10.43;;;6.68;;
16760;SDS011;8498;52.516;13.790;2023-07-20T03:19:17;16.58;;;7.50;;
16760;SDS011;8498;52.516;13.790;2023-07-20T03:24:39;10.27;;;7.57;;
16760;SDS011;8498;52.516;13.790;2023-07-20T03:30:02;10.73;;;7.45;;
16760;SDS011;8498;52.516;13.790;2023-07-20T03:35:24;13.23;;;7.53;;
16760;SDS011;8498;52.516;13.790;2023-07-20T03:40:54;11.50;;;8.25;;
16760;SDS011;8498;52.516;13.790;2023-07-20T03:46:18;9.15;;;7.53;;
16760;SDS011;8498;52.516;13.790;2023-07-20T03:51:40;14.10;;;8.07;;
16760;SDS011;8498;52.516;13.790;2023-07-20T03:57:03;11.00;;;8.38;;
16760;SDS011;8498;52.516;13.790;2023-07-20T04:02:26;12.30;;;8.25;;
16760;SDS011;8498;52.516;13.790;2023-07-20T04:07:48;13.98;;;8.98;;
16760;SDS011;8498;52.516;13.790;2023-07-20T04:13:11;14.97;;;8.77;;
16760;SDS011;8498;52.516;13.790;2023-07-20T04:18:34;13.43;;;8.18;;
16760;SDS011;8498;52.516;13.790;2023-07-20T04:23:56;12.43;;;8.60;;
16760;SDS011;8498;52.516;13.790;2023-07-20T04:29:19;12.75;;;9.13;;
16760;SDS011;8498;52.516;13.790;2023-07-20T04:34:42;15.38;;;9.50;;
16760;SDS011;8498;52.516;13.790;2023-07-20T04:40:04;18.67;;;11.00;;
16760;SDS011;8498;52.516;13.790;2023-07-20T04:45:28;16.40;;;9.80;;
16760;SDS011;8498;52.516;13.790;2023-07-20T04:50:50;22.77;;;12.10;;
16760;SDS011;8498;52.516;13.790;2023-07-20T04:56:13;20.08;;;11.05;;
16760;SDS011;8498;52.516;13.790;2023-07-20T05:01:35;22.52;;;11.43;;
16760;SDS011;8498;52.516;13.790;2023-07-20T05:06:58;18.50;;;10.77;;
16760;SDS011;8498;52.516;13.790;2023-07-20T05:12:21;20.20;;;11.43;;
16760;SDS011;8498;52.516;13.790;2023-07-20T05:17:43;18.35;;;10.73;;
16760;SDS011;8498;52.516;13.790;2023-07-20T05:23:06;17.83;;;10.55;;
16760;SDS011;8498;52.516;13.790;2023-07-20T05:28:28;15.80;;;10.20;;
16760;SDS011;8498;52.516;13.790;2023-07-20T05:33:51;14.98;;;9.45;;
16760;SDS011;8498;52.516;13.790;2023-07-20T05:39:13;18.13;;;11.10;;
16760;SDS011;8498;52.516;13.790;2023-07-20T05:44:36;18.33;;;11.02;;
16760;SDS011;8498;52.516;13.790;2023-07-20T05:50:00;18.83;;;9.68;;
16760;SDS011;8498;52.516;13.790;2023-07-20T05:55:23;16.30;;;9.80;;
16760;SDS011;8498;52.516;13.790;2023-07-20T06:00:49;13.18;;;9.27;;
16760;SDS011;8498;52.516;13.790;2023-07-20T06:06:12;11.10;;;8.15;;
16760;SDS011;8498;52.516;13.790;2023-07-20T06:11:35;10.70;;;7.65;;
16760;SDS011;8498;52.516;13.790;2023-07-20T06:16:57;11.80;;;8.05;;
16760;SDS011;8498;52.516;13.790;2023-07-20T06:22:20;7.80;;;6.40;;
16760;SDS011;8498;52.516;13.790;2023-07-20T06:27:42;9.45;;;6.53;;
16760;SDS011;8498;52.516;13.790;2023-07-20T06:33:06;10.60;;;6.60;;
16760;SDS011;8498;52.516;13.790;2023-07-20T06:38:29;8.23;;;6.07;;
16760;SDS011;8498;52.516;13.790;2023-07-20T06:43:53;8.82;;;5.63;;
16760;SDS011;8498;52.516;13.790;2023-07-20T06:49:23;7.43;;;5.45;;
16760;SDS011;8498;52.516;13.790;2023-07-20T06:54:49;8.50;;;4.90;;
16760;SDS011;8498;52.516;13.790;2023-07-20T07:00:12;4.05;;;3.75;;
16760;SDS011;8498;52.516;13.790;2023-07-20T07:05:35;5.05;;;3.78;;
16760;SDS011;8498;52.516;13.790;2023-07-20T07:10:59;5.10;;;4.05;;
16760;SDS011;8498;52.516;13.790;2023-07-20T07:16:23;3.95;;;3.65;;
16760;SDS011;8498;52.516;13.790;2023-07-20T07:21:46;4.68;;;3.65;;
16760;SDS011;8498;52.516;13.790;2023-07-20T07:27:09;3.60;;;2.95;;
16760;SDS011;8498;52.516;13.790;2023-07-20T07:32:32;2.67;;;2.47;;
16760;SDS011;8498;52.516;13.790;2023-07-20T07:37:56;5.10;;;3.22;;
16760;SDS011;8498;52.516;13.790;2023-07-20T07:43:39;8.02;;;2.97;;
16760;SDS011;8498;52.516;13.790;2023-07-20T07:49:02;3.00;;;2.80;;
16760;SDS011;8498;52.516;13.790;2023-07-20T07:54:25;4.82;;;2.70;;
16760;SDS011;8498;52.516;13.790;2023-07-20T07:59:47;3.50;;;1.92;;
16760;SDS011;8498;52.516;13.790;2023-07-20T08:05:10;2.60;;;1.67;;
16760;SDS011;8498;52.516;13.790;2023-07-20T08:10:32;2.15;;;1.50;;
16760;SDS011;8498;52.516;13.790;2023-07-20T08:15:57;4.10;;;2.15;;
16760;SDS011;8498;52.516;13.790;2023-07-20T08:21:19;1.75;;;1.65;;
16760;SDS011;8498;52.516;13.790;2023-07-20T08:26:42;3.08;;;2.03;;
16760;SDS011;8498;52.516;13.790;2023-07-20T08:32:05;1.60;;;1.42;;
16760;SDS011;8498;52.516;13.790;2023-07-20T08:37:28;1.50;;;1.40;;
16760;SDS011;8498;52.516;13.790;2023-07-20T08:42:51;1.50;;;1.40;;
16760;SDS011;8498;52.516;13.790;2023-07-20T08:48:16;7.32;;;1.65;;
16760;SDS011;8498;52.516;13.790;2023-07-20T08:53:40;1.52;;;1.45;;
16760;SDS011;8498;52.516;13.790;2023-07-20T08:59:03;1.73;;;1.30;;
16760;SDS011;8498;52.516;13.790;2023-07-20T09:04:26;1.10;;;1.10;;
16760;SDS011;8498;52.516;13.790;2023-07-20T09:09:49;1.52;;;1.40;;
16760;SDS011;8498;52.516;13.790;2023-07-20T09:15:12;1.42;;;1.30;;
16760;SDS011;8498;52.516;13.790;2023-07-20T09:20:36;1.00;;;1.00;;
16760;SDS011;8498;52.516;13.790;2023-07-20T09:25:59;1.15;;;0.90;;
16760;SDS011;8498;52.516;13.790;2023-07-20T09:31:22;1.75;;;1.10;;
16760;SDS011;8498;52.516;13.790;2023-07-20T09:36:45;1.38;;;0.80;;
16760;SDS011;8498;52.516;13.790;2023-07-20T09:42:11;0.70;;;0.70;;
16760;SDS011;8498;52.516;13.790;2023-07-20T09:47:37;1.80;;;0.90;;
16760;SDS011;8498;52.516;13.790;2023-07-20T09:53:00;0.82;;;0.82;;
16760;SDS011;8498;52.516;13.790;2023-07-20T09:58:27;0.80;;;0.68;;
16760;SDS011;8498;52.516;13.790;2023-07-20T10:03:51;1.00;;;0.77;;
16760;SDS011;8498;52.516;13.790;2023-07-20T10:09:16;0.95;;;0.82;;
16760;SDS011;8498;52.516;13.790;2023-07-20T10:14:40;0.93;;;0.80;;
16760;SDS011;8498;52.516;13.790;2023-07-20T10:20:08;0.65;;;0.65;;
16760;SDS011;8498;52.516;13.790;2023-07-20T10:25:32;1.48;;;0.95;;
16760;SDS011;8498;52.516;13.790;2023-07-20T10:30:59;0.60;;;0.60;;
16760;SDS011;8498;52.516;13.790;2023-07-20T10:36:24;1.15;;;0.77;;
16760;SDS011;8498;52.516;13.790;2023-07-20T10:41:59;0.70;;;0.70;;
16760;SDS011;8498;52.516;13.790;2023-07-20T10:47:23;1.25;;;0.90;;
16760;SDS011;8498;52.516;13.790;2023-07-20T10:52:49;1.92;;;0.70;;
16760;SDS011;8498;52.516;13.790;2023-07-20T10:58:27;4.82;;;1.13;;
16760;SDS011;8498;52.516;13.790;2023-07-20T11:03:50;0.90;;;0.90;;
16760;SDS011;8498;52.516;13.790;2023-07-20T11:09:15;1.50;;;0.85;;
16760;SDS011;8498;52.516;13.790;2023-07-20T11:14:56;2.78;;;0.90;;
16760;SDS011;8498;52.516;13.790;2023-07-20T11:20:19;1.58;;;1.00;;
16760;SDS011;8498;52.516;13.790;2023-07-20T11:25:44;1.75;;;0.82;;
16760;SDS011;8498;52.516;13.790;2023-07-20T11:31:06;2.30;;;0.85;;
16760;SDS011;8498;52.516;13.790;2023-07-20T11:36:29;1.08;;;0.98;;
16760;SDS011;8498;52.516;13.790;2023-07-20T11:41:55;4.25;;;0.85;;
16760;SDS011;8498;52.516;13.790;2023-07-20T11:47:18;0.80;;;0.80;;
16760;SDS011;8498;52.516;13.790;2023-07-20T11:52:41;0.60;;;0.60;;
16760;SDS011;8498;52.516;13.790;2023-07-20T11:58:07;2.05;;;0.80;;
16760;SDS011;8498;52.516;13.790;2023-07-20T12:03:31;1.23;;;0.75;;
16760;SDS011;8498;52.516;13.790;2023-07-20T12:08:54;0.80;;;0.75;;
16760;SDS011;8498;52.516;13.790;2023-07-20T12:14:21;0.75;;;0.75;;
16760;SDS011;8498;52.516;13.790;2023-07-20T12:19:47;2.00;;;0.80;;
16760;SDS011;8498;52.516;13.790;2023-07-20T12:25:10;0.60;;;0.60;;
16760;SDS011;8498;52.516;13.790;2023-07-20T12:30:32;1.17;;;1.02;;
16760;SDS011;8498;52.516;13.790;2023-07-20T12:35:55;1.38;;;0.70;;
16760;SDS011;8498;52.516;13.790;2023-07-20T12:41:20;0.77;;;0.70;;
16760;SDS011;8498;52.516;13.790;2023-07-20T12:46:42;3.03;;;0.50;;
16760;SDS011;8498;52.516;13.790;2023-07-20T12:52:05;1.30;;;0.65;;
16760;SDS011;8498;52.516;13.790;2023-07-20T12:57:31;0.60;;;0.60;;
16760;SDS011;8498;52.516;13.790;2023-07-20T13:02:56;0.60;;;0.60;;
16760;SDS011;8498;52.516;13.790;2023-07-20T13:08:24;0.85;;;0.70;;
16760;SDS011;8498;52.516;13.790;2023-07-20T13:13:48;0.40;;;0.40;;
16760;SDS011;8498;52.516;13.790;2023-07-20T13:19:10;0.47;;;0.47;;
16760;SDS011;8498;52.516;13.790;2023-07-20T13:24:32;0.82;;;0.63;;
16760;SDS011;8498;52.516;13.790;2023-07-20T13:29:55;0.50;;;0.50;;
16760;SDS011;8498;52.516;13.790;2023-07-20T13:35:19;0.60;;;0.60;;
16760;SDS011;8498;52.516;13.790;2023-07-20T13:40:41;5.07;;;0.70;;
16760;SDS011;8498;52.516;13.790;2023-07-20T13:46:04;2.40;;;0.77;;
16760;SDS011;8498;52.516;13.790;2023-07-20T13:51:27;0.75;;;0.75;;
16760;SDS011;8498;52.516;13.790;2023-07-20T13:56:49;0.63;;;0.60;;
16760;SDS011;8498;52.516;13.790;2023-07-20T14:02:13;0.68;;;0.68;;
16760;SDS011;8498;52.516;13.790;2023-07-20T14:07:40;0.63;;;0.63;;
16760;SDS011;8498;52.516;13.790;2023-07-20T14:13:02;0.60;;;0.60;;
16760;SDS011;8498;52.516;13.790;2023-07-20T14:18:25;2.60;;;0.75;;
16760;SDS011;8498;52.516;13.790;2023-07-20T14:23:48;0.80;;;0.50;;
16760;SDS011;8498;52.516;13.790;2023-07-20T14:29:15;2.30;;;0.60;;
16760;SDS011;8498;52.516;13.790;2023-07-20T14:34:39;0.40;;;0.40;;
16760;SDS011;8498;52.516;13.790;2023-07-20T14:40:02;0.45;;;0.45;;
16760;SDS011;8498;52.516;13.790;2023-07-20T14:45:30;1.75;;;0.50;;
16760;SDS011;8498;52.516;13.790;2023-07-20T14:50:53;0.63;;;0.50;;
16760;SDS011;8498;52.516;13.790;2023-07-20T14:56:26;1.50;;;0.50;;
16760;SDS011;8498;52.516;13.790;2023-07-20T15:01:49;2.03;;;0.50;;
16760;SDS011;8498;52.516;13.790;2023-07-20T15:07:13;1.30;;;0.60;;
16760;SDS011;8498;52.516;13.790;2023-07-20T15:12:35;0.75;;;0.50;;
16760;SDS011;8498;52.516;13.790;2023-07-20T15:18:00;0.70;;;0.70;;
16760;SDS011;8498;52.516;13.790;2023-07-20T15:23:23;0.70;;;0.65;;
16760;SDS011;8498;52.516;13.790;2023-07-20T15:28:45;0.70;;;0.70;;
16760;SDS011;8498;52.516;13.790;2023-07-20T15:34:08;0.60;;;0.60;;
16760;SDS011;8498;52.516;13.790;2023-07-20T15:39:30;0.75;;;0.75;;
16760;SDS011;8498;52.516;13.790;2023-07-20T15:44:52;1.50;;;0.60;;
16760;SDS011;8498;52.516;13.790;2023-07-20T15:50:15;1.48;;;0.77;;
16760;SDS011;8498;52.516;13.790;2023-07-20T15:55:38;1.48;;;0.73;;
16760;SDS011;8498;52.516;13.790;2023-07-20T16:01:00;1.17;;;0.73;;
16760;SDS011;8498;52.516;13.790;2023-07-20T16:06:23;0.45;;;0.45;;
16760;SDS011;8498;52.516;13.790;2023-07-20T16:11:46;1.60;;;0.60;;
16760;SDS011;8498;52.516;13.790;2023-07-20T16:17:09;2.72;;;1.20;;
16760;SDS011;8498;52.516;13.790;2023-07-20T16:22:31;2.05;;;0.80;;
16760;SDS011;8498;52.516;13.790;2023-07-20T16:27:53;0.70;;;0.70;;
16760;SDS011;8498;52.516;13.790;2023-07-20T16:33:16;1.83;;;0.80;;
16760;SDS011;8498;52.516;13.790;2023-07-20T16:38:38;1.58;;;0.80;;
16760;SDS011;8498;52.516;13.790;2023-07-20T16:44:05;0.63;;;0.63;;
16760;SDS011;8498;52.516;13.790;2023-07-20T16:49:27;0.70;;;0.70;;
16760;SDS011;8498;52.516;13.790;2023-07-20T16:54:52;5.47;;;0.88;;
16760;SDS011;8498;52.516;13.790;2023-07-20T17:00:14;6.13;;;0.70;;
16760;SDS011;8498;52.516;13.790;2023-07-20T17:05:39;0.93;;;0.90;;
16760;SDS011;8498;52.516;13.790;2023-07-20T17:11:01;0.85;;;0.85;;
16760;SDS011;8498;52.516;13.790;2023-07-20T17:16:24;1.85;;;1.00;;
16760;SDS011;8498;52.516;13.790;2023-07-20T17:21:47;3.33;;;0.82;;
16760;SDS011;8498;52.516;13.790;2023-07-20T17:27:10;1.70;;;1.15;;
16760;SDS011;8498;52.516;13.790;2023-07-20T17:32:36;1.35;;;1.00;;
16760;SDS011;8498;52.516;13.790;2023-07-20T17:37:59;7.93;;;1.70;;
16760;SDS011;8498;52.516;13.790;2023-07-20T17:43:24;3.17;;;0.93;;
16760;SDS011;8498;52.516;13.790;2023-07-20T17:48:47;1.23;;;1.20;;
16760;SDS011;8498;52.516;13.790;2023-07-20T17:54:11;1.55;;;0.80;;
16760;SDS011;8498;52.516;13.790;2023-07-20T17:59:36;1.98;;;1.10;;
16760;SDS011;8498;52.516;13.790;2023-07-20T18:05:20;1.77;;;0.90;;
16760;SDS011;8498;52.516;13.790;2023-07-20T18:10:42;2.33;;;0.80;;
16760;SDS011;8498;52.516;13.790;2023-07-20T18:16:05;3.38;;;0.93;;
16760;SDS011;8498;52.516;13.790;2023-07-20T18:21:28;0.60;;;0.60;;
16760;SDS011;8498;52.516;13.790;2023-07-20T18:26:50;1.70;;;0.80;;
16760;SDS011;8498;52.516;13.790;2023-07-20T18:32:13;1.42;;;0.93;;
16760;SDS011;8498;52.516;13.790;2023-07-20T18:37:36;0.85;;;0.80;;
16760;SDS011;8498;52.516;13.790;2023-07-20T18:42:58;1.25;;;0.80;;
16760;SDS011;8498;52.516;13.790;2023-07-20T18:48:21;0.80;;;0.80;;
16760;SDS011;8498;52.516;13.790;2023-07-20T18:53:44;4.40;;;0.80;;
16760;SDS011;8498;52.516;13.790;2023-07-20T18:59:06;0.93;;;0.80;;
16760;SDS011;8498;52.516;13.790;2023-07-20T19:04:29;0.95;;;0.68;;
16760;SDS011;8498;52.516;13.790;2023-07-20T19:09:52;2.17;;;0.68;;
16760;SDS011;8498;52.516;13.790;2023-07-20T19:15:14;0.63;;;0.50;;
16760;SDS011;8498;52.516;13.790;2023-07-20T19:20:37;0.82;;;0.50;;
16760;SDS011;8498;52.516;13.790;2023-07-20T19:26:07;0.50;;;0.50;;
16760;SDS011;8498;52.516;13.790;2023-07-20T19:31:31;0.60;;;0.60;;
16760;SDS011;8498;52.516;13.790;2023-07-20T19:36:54;0.88;;;0.60;;
16760;SDS011;8498;52.516;13.790;2023-07-20T19:42:16;3.20;;;0.70;;
16760;SDS011;8498;52.516;13.790;2023-07-20T19:47:38;1.65;;;0.60;;
16760;SDS011;8498;52.516;13.790;2023-07-20T19:53:03;0.40;;;0.40;;
16760;SDS011;8498;52.516;13.790;2023-07-20T19:58:45;1.92;;;0.70;;
16760;SDS011;8498;52.516;13.790;2023-07-20T20:04:09;2.35;;;0.60;;
16760;SDS011;8498;52.516;13.790;2023-07-20T20:09:34;1.08;;;0.60;;
16760;SDS011;8498;52.516;13.790;2023-07-20T20:14:57;1.65;;;0.80;;
16760;SDS011;8498;52.516;13.790;2023-07-20T20:20:20;1.35;;;0.75;;
16760;SDS011;8498;52.516;13.790;2023-07-20T20:25:43;1.42;;;1.00;;
16760;SDS011;8498;52.516;13.790;2023-07-20T20:31:06;1.67;;;1.00;;
16760;SDS011;8498;52.516;13.790;2023-07-20T20:36:29;2.75;;;1.13;;
16760;SDS011;8498;52.516;13.790;2023-07-20T20:41:51;0.90;;;0.90;;
16760;SDS011;8498;52.516;13.790;2023-07-20T20:47:13;1.20;;;1.10;;
16760;SDS011;8498;52.516;13.790;2023-07-20T20:52:36;2.08;;;1.45;;
16760;SDS011;8498;52.516;13.790;2023-07-20T20:57:59;1.58;;;1.42;;
16760;SDS011;8498;52.516;13.790;2023-07-20T21:03:22;2.67;;;1.10;;
16760;SDS011;8498;52.516;13.790;2023-07-20T21:08:44;1.33;;;1.23;;
16760;SDS011;8498;52.516;13.790;2023-07-20T21:14:07;1.33;;;1.33;;
16760;SDS011;8498;52.516;13.790;2023-07-20T21:19:30;1.20;;;1.10;;
16760;SDS011;8498;52.516;13.790;2023-07-20T21:24:53;1.40;;;0.90;;
16760;SDS011;8498;52.516;13.790;2023-07-20T21:30:16;1.20;;;1.00;;
16760;SDS011;8498;52.516;13.790;2023-07-20T21:35:39;1.97;;;0.80;;
16760;SDS011;8498;52.516;13.790;2023-07-20T21:41:02;1.40;;;1.10;;
16760;SDS011;8498;52.516;13.790;2023-07-20T21:46:28;2.35;;;1.08;;
16760;SDS011;8498;52.516;13.790;2023-07-20T21:51:51;3.03;;;1.47;;
16760;SDS011;8498;52.516;13.790;2023-07-20T21:57:13;3.10;;;1.63;;
16760;SDS011;8498;52.516;13.790;2023-07-20T22:02:36;5.77;;;1.70;;
16760;SDS011;8498;52.516;13.790;2023-07-20T22:07:58;2.37;;;1.33;;
16760;SDS011;8498;52.516;13.790;2023-07-20T22:13:21;3.27;;;1.73;;
16760;SDS011;8498;52.516;13.790;2023-07-20T22:18:44;4.00;;;1.53;;
16760;SDS011;8498;52.516;13.790;2023-07-20T22:24:08;3.57;;;1.20;;
16760;SDS011;8498;52.516;13.790;2023-07-20T22:29:31;1.20;;;1.20;;
16760;SDS011;8498;52.516;13.790;2023-07-20T22:34:57;1.63;;;1.60;;
16760;SDS011;8498;52.516;13.790;2023-07-20T22:40:19;1.47;;;1.40;;
16760;SDS011;8498;52.516;13.790;2023-07-20T22:45:41;1.70;;;1.60;;
16760;SDS011;8498;52.516;13.790;2023-07-20T22:51:04;2.13;;;1.57;;
16760;SDS011;8498;52.516;13.790;2023-07-20T22:56:28;1.90;;;1.80;;
16760;SDS011;8498;52.516;13.790;2023-07-20T23:01:51;2.03;;;1.83;;
16760;SDS011;8498;52.516;13.790;2023-07-20T23:07:13;2.27;;;2.17;;
16760;SDS011;8498;52.516;13.790;2023-07-20T23:12:36;1.87;;;1.63;;
16760;SDS011;8498;52.516;13.790;2023-07-20T23:17:59;2.40;;;1.67;;
16760;SDS011;8498;52.516;13.790;2023-07-20T23:23:22;3.20;;;1.50;;
16760;SDS011;8498;52.516;13.790;2023-07-20T23:28:44;1.37;;;1.10;;
16760;SDS011;8498;52.516;13.790;2023-07-20T23:34:08;1.63;;;1.53;;
16760;SDS011;8498;52.516;13.790;2023-07-20T23:39:31;1.93;;;1.60;;
16760;SDS011;8498;52.516;13.790;2023-07-20T23:44:54;2.30;;;1.50;;
16760;SDS011;8498;52.516;13.790;2023-07-20T23:50:16;1.50;;;1.40;;
16760;SDS011;8498;52.516;13.790;2023-07-20T23:55:41;2.07;;;1.40;;
